Madison, AL (35756)

7:01 PM CDT on August 21, 2017 (GMT -0500)
Taylors Crossing | | Change Station

Elev 650 ft 34.70 °N, 86.79 °W | Updated 6 seconds ago

Partly Cloudy
Partly Cloudy
86.7 °F
Feels Like 93 °F
N
0.0
Wind Variable Wind from North

Today
High -- | Low -- °F
--% Chance of Precip.
Yesterday
High -- | Low -- °F
Precip. -- in
Pressure 30.08 in
Visibility 10.0 miles
Clouds Few 6500 ft
Heat Index 93 °F
Dew Point 72 °F
Humidity 61%
Rainfall 0.00 in
Snow Depth Not available.
6:12 AM 7:27 PM
New Moon, 0% visible
METAR KHSV 212353Z 12004KT 10SM FEW065 31/22 A3010 RMK AO2 SLP185 T03060222 10344 20300 55001
Pressure 30.08 in
Visibility 10.0 miles
Clouds Few 6500 ft
Heat Index 93 °F
Dew Point 72 °F
Humidity 61%
Rainfall 0.00 in
Snow Depth Not available.
6:12 AM 7:27 PM
New Moon, 0% visible
METAR KHSV 212353Z 12004KT 10SM FEW065 31/22 A3010 RMK AO2 SLP185 T03060222 10344 20300 55001

Get Severe Weather Alerts

Thanks for signing up!

Be on the lookout for a verification email in your inbox.

You'll start receiving the daily forecast at 6 AM.

×

10-Day Weather Forecast

Almanac

Astronomy

Aug. 21, 2017 Rise Set
Actual Time
Civil Twilight
Nautical Twilight
Astronomical Twilight
Moon
Length of Visible Light
Length of Day
Tomorrow will be .
, % of the Moon is Illuminated

Today's Extremes

State Highs State Lows

Community

WunderPhotos

Category 6

Welcome to Category 6. This is the collective home for Weather Underground's featured writeups by Dr. Jeff Masters (right), Bob Henson (left), Chris Burt, and other regular contributors.

Nearby

Air Quality

  Air Quality AQ Index Pollutant
Not available.

Snow Depth

Station Depth Elevation

Earthquake Activity

City Distance Mag. Time & Date
Minimum magnitude displayed is 2.5.

Coastal Water Temperatures

Place Temperature

Stations

Nearby Weather Stations

Station Location Temp. Windchill Dew Point Humidity Wind Precip. Elev Updated Type
                   

Watches & Warnings

There are currently no watches in effect.